createdAt,value
2018-06-15T00:00:20.920Z,99.99
2018-06-15T00:01:20.937Z,99.99
2018-06-15T00:02:20.952Z,99.99
2018-06-15T00:03:21.071Z,99.99
2018-06-15T00:04:20.985Z,99.99
2018-06-15T00:05:20.999Z,99.99
2018-06-15T00:06:21.017Z,99.99
2018-06-15T00:07:21.035Z,99.99
2018-06-15T00:08:21.049Z,99.99
2018-06-15T00:09:21.067Z,99.99
2018-06-15T00:10:21.080Z,99.99
2018-06-15T00:11:21.095Z,99.99
2018-06-15T00:12:21.113Z,99.99
2018-06-15T00:13:21.129Z,99.99
2018-06-15T00:14:21.144Z,99.99
2018-06-15T00:15:21.161Z,99.99
2018-06-15T00:16:21.177Z,99.99
2018-06-15T00:17:21.191Z,99.99
2018-06-15T00:18:21.209Z,99.99
2018-06-15T00:19:21.225Z,99.99
2018-06-15T00:20:21.240Z,99.99
2018-06-15T00:21:21.257Z,99.99
2018-06-15T00:22:21.273Z,99.99
2018-06-15T00:23:21.308Z,99.99
2018-06-15T00:24:21.315Z,99.99
2018-06-15T00:25:21.321Z,99.99
2018-06-15T00:26:21.339Z,99.99
2018-06-15T00:27:21.351Z,99.99
2018-06-15T00:28:21.375Z,99.99
2018-06-15T00:29:21.390Z,99.99
2018-06-15T00:30:21.401Z,99.99
2018-06-15T00:31:21.474Z,99.99
2018-06-15T00:32:21.437Z,99.99
2018-06-15T00:33:21.448Z,99.99
2018-06-15T00:34:21.464Z,99.99
2018-06-15T00:35:21.483Z,99.99
2018-06-15T00:36:21.501Z,99.99
2018-06-15T00:37:21.515Z,99.99
2018-06-15T00:38:21.534Z,99.99
2018-06-15T00:39:21.544Z,99.99
2018-06-15T00:40:21.563Z,99.99
2018-06-15T00:41:21.582Z,99.99
2018-06-15T00:42:21.592Z,99.99
2018-06-15T00:43:21.608Z,99.99
2018-06-15T00:44:21.625Z,99.99
2018-06-15T00:45:21.643Z,99.99
2018-06-15T00:46:21.662Z,99.99
2018-06-15T00:47:21.680Z,99.99
2018-06-15T00:48:21.704Z,99.99
2018-06-15T00:49:21.706Z,99.99
2018-06-15T00:50:21.720Z,99.99
2018-06-15T00:51:21.748Z,99.99
2018-06-15T00:52:21.753Z,99.99
2018-06-15T00:53:21.800Z,99.99
2018-06-15T00:54:21.784Z,99.99
2018-06-15T00:55:21.800Z,99.99
2018-06-15T00:56:21.820Z,99.99
2018-06-15T00:57:21.833Z,99.99
2018-06-15T00:58:21.849Z,99.99
2018-06-15T00:59:21.865Z,99.99
2018-06-15T01:00:21.883Z,99.99
2018-06-15T01:01:21.905Z,99.99
2018-06-15T01:02:22.114Z,99.99
2018-06-15T01:03:21.928Z,99.99
2018-06-15T01:04:21.944Z,99.99
2018-06-15T01:05:21.961Z,99.99
2018-06-15T01:06:21.977Z,99.99
2018-06-15T01:07:21.993Z,99.99
2018-06-15T01:08:22.012Z,99.99
2018-06-15T01:09:22.026Z,99.99
2018-06-15T01:10:22.040Z,99.99
2018-06-15T01:11:22.056Z,99.99
2018-06-15T01:12:22.073Z,99.99
2018-06-15T01:13:22.095Z,99.99
2018-06-15T01:14:22.205Z,99.99
2018-06-15T01:15:22.122Z,99.99
2018-06-15T01:16:22.137Z,99.99
2018-06-15T01:17:22.156Z,99.99
2018-06-15T01:18:22.167Z,99.99
2018-06-15T01:19:22.185Z,99.99
2018-06-15T01:20:22.201Z,99.99
2018-06-15T01:21:22.219Z,99.99
2018-06-15T01:22:22.232Z,99.99
2018-06-15T01:23:22.251Z,99.99
2018-06-15T01:24:22.265Z,99.99
2018-06-15T01:25:22.282Z,99.99
2018-06-15T01:26:22.300Z,99.99
2018-06-15T01:27:22.340Z,99.99
2018-06-15T01:28:22.343Z,99.99
2018-06-15T01:29:22.345Z,99.99
2018-06-15T01:30:22.362Z,99.99
2018-06-15T01:31:22.378Z,99.99
2018-06-15T01:32:22.393Z,99.99
2018-06-15T01:33:22.416Z,99.99
2018-06-15T01:34:22.425Z,99.99
2018-06-15T01:35:22.441Z,99.99
2018-06-15T01:36:22.458Z,99.99
2018-06-15T01:37:22.475Z,99.99
2018-06-15T01:38:22.494Z,99.99
2018-06-15T01:39:22.507Z,99.99
2018-06-15T01:40:22.522Z,99.99
2018-06-15T01:41:22.538Z,99.99
2018-06-15T01:42:22.552Z,99.99
2018-06-15T01:43:22.567Z,99.99
2018-06-15T01:44:22.584Z,99.99
2018-06-15T01:45:22.600Z,99.99
2018-06-15T01:46:22.616Z,99.99
2018-06-15T01:47:22.636Z,99.99
2018-06-15T01:48:22.655Z,99.99
2018-06-15T01:49:22.665Z,99.99
2018-06-15T01:50:22.680Z,99.99
2018-06-15T01:51:22.698Z,99.99
2018-06-15T01:52:22.715Z,99.99
2018-06-15T01:53:22.728Z,99.99
2018-06-15T01:54:22.744Z,99.99
2018-06-15T01:55:22.760Z,99.99
2018-06-15T01:56:22.781Z,99.99
2018-06-15T01:57:22.793Z,99.99
2018-06-15T01:58:22.811Z,99.99
2018-06-15T01:59:22.870Z,99.99
2018-06-15T02:00:22.844Z,99.99
2018-06-15T02:01:22.918Z,99.99
2018-06-15T02:02:22.872Z,99.99
2018-06-15T02:03:22.892Z,99.99
2018-06-15T02:04:22.907Z,99.99
2018-06-15T02:05:22.923Z,99.99
2018-06-15T02:06:22.937Z,99.99
2018-06-15T02:07:22.953Z,99.99
2018-06-15T02:08:22.969Z,99.99
2018-06-15T02:09:22.985Z,99.99
2018-06-15T02:10:23.002Z,99.99
2018-06-15T02:11:23.019Z,99.99
2018-06-15T02:12:23.033Z,99.99
2018-06-15T02:13:23.058Z,99.99
2018-06-15T02:14:23.079Z,99.99
2018-06-15T02:15:23.118Z,99.99
2018-06-15T02:16:23.097Z,99.99
2018-06-15T02:17:23.115Z,99.99
2018-06-15T02:18:23.132Z,99.99
2018-06-15T02:19:23.143Z,99.99
2018-06-15T02:20:23.172Z,99.99
2018-06-15T02:21:23.185Z,99.99
2018-06-15T02:22:23.195Z,99.99
2018-06-15T02:23:23.208Z,99.99
2018-06-15T02:24:23.243Z,99.99
2018-06-15T02:25:23.241Z,99.99
2018-06-15T02:26:23.257Z,99.99
2018-06-15T02:27:23.283Z,99.99
2018-06-15T02:28:23.288Z,99.99
2018-06-15T02:29:23.305Z,99.99
2018-06-15T02:30:23.322Z,99.99
2018-06-15T02:31:23.338Z,99.99
2018-06-15T02:32:23.355Z,99.99
2018-06-15T02:33:23.372Z,99.99
2018-06-15T02:34:23.391Z,99.99
2018-06-15T02:35:23.410Z,99.99
2018-06-15T02:36:23.418Z,99.99
2018-06-15T02:37:23.436Z,99.99
2018-06-15T02:38:23.449Z,99.99
2018-06-15T02:39:23.486Z,99.99
2018-06-15T02:40:23.481Z,99.99
2018-06-15T02:41:23.508Z,99.99
2018-06-15T02:42:23.512Z,99.99
2018-06-15T02:43:23.538Z,99.99
2018-06-15T02:44:23.544Z,99.99
2018-06-15T02:45:23.598Z,99.99
2018-06-15T02:46:23.575Z,99.99
2018-06-15T02:47:23.597Z,99.99
2018-06-15T02:48:23.606Z,99.99
2018-06-15T02:49:23.623Z,99.99
2018-06-15T02:50:23.637Z,99.99
2018-06-15T02:51:23.654Z,99.99
2018-06-15T02:52:23.675Z,99.99
2018-06-15T02:53:23.686Z,99.99
2018-06-15T02:54:23.703Z,99.99
2018-06-15T02:55:23.719Z,99.99
2018-06-15T02:56:23.739Z,99.99
2018-06-15T02:57:23.762Z,99.99
2018-06-15T02:58:23.765Z,99.99
2018-06-15T02:59:23.784Z,99.99
2018-06-15T03:00:23.798Z,99.99
2018-06-15T03:01:23.817Z,99.99
2018-06-15T03:02:23.847Z,99.99
2018-06-15T03:03:23.845Z,99.99
2018-06-15T03:04:23.862Z,99.99
2018-06-15T03:05:23.880Z,99.99
2018-06-15T03:06:23.894Z,99.99
2018-06-15T03:07:23.911Z,99.99
2018-06-15T03:08:23.925Z,99.99
2018-06-15T03:09:23.945Z,99.99
2018-06-15T03:10:23.959Z,99.99
2018-06-15T03:11:23.975Z,99.99
2018-06-15T03:12:23.997Z,99.99
2018-06-15T03:13:24.006Z,99.99
2018-06-15T03:14:24.021Z,99.99
2018-06-15T03:15:24.038Z,99.99
2018-06-15T03:16:24.055Z,99.99
2018-06-15T03:17:24.083Z,99.99
2018-06-15T03:18:24.086Z,99.99
2018-06-15T03:19:24.102Z,99.99
2018-06-15T03:20:24.116Z,99.99
2018-06-15T03:21:24.135Z,99.99
2018-06-15T03:22:24.148Z,99.99
2018-06-15T03:23:24.165Z,99.99
2018-06-15T03:24:24.183Z,99.99
2018-06-15T03:25:24.197Z,99.99
2018-06-15T03:26:24.240Z,99.99
2018-06-15T03:27:24.228Z,99.99
2018-06-15T03:28:24.300Z,99.99
2018-06-15T03:29:24.287Z,99.99
2018-06-15T03:30:24.279Z,99.99
2018-06-15T03:31:24.392Z,99.99
2018-06-15T03:32:24.312Z,99.99
2018-06-15T03:33:24.325Z,99.99
2018-06-15T03:34:24.341Z,99.99
2018-06-15T03:35:24.356Z,99.99
2018-06-15T03:36:24.372Z,99.99
2018-06-15T03:37:24.389Z,99.99
2018-06-15T03:38:24.410Z,99.99
2018-06-15T03:39:24.732Z,99.99
2018-06-15T03:40:24.448Z,99.99
2018-06-15T03:41:24.454Z,99.99
2018-06-15T03:42:24.481Z,99.99
2018-06-15T03:43:24.484Z,99.99
2018-06-15T03:44:24.503Z,99.99
2018-06-15T03:45:24.524Z,99.99
2018-06-15T03:46:24.534Z,99.99
2018-06-15T03:47:24.550Z,99.99
2018-06-15T03:48:24.571Z,99.99
2018-06-15T03:49:24.585Z,99.99
2018-06-15T03:50:24.600Z,99.99
2018-06-15T03:51:24.616Z,99.99
2018-06-15T03:52:24.630Z,99.99
2018-06-15T03:53:24.650Z,99.99
2018-06-15T03:54:24.664Z,99.99
2018-06-15T03:55:24.682Z,99.99
2018-06-15T03:56:24.701Z,99.99
2018-06-15T03:57:24.712Z,99.99
2018-06-15T03:58:24.727Z,99.99
2018-06-15T03:59:24.745Z,99.99
2018-06-15T04:00:24.758Z,99.99
2018-06-15T04:01:24.781Z,99.99
2018-06-15T04:02:24.791Z,99.99
2018-06-15T04:03:24.818Z,99.99
2018-06-15T04:04:24.824Z,99.99
2018-06-15T04:05:24.840Z,99.99
2018-06-15T04:06:24.853Z,99.99
2018-06-15T04:07:24.872Z,99.99
2018-06-15T04:08:24.891Z,99.99
2018-06-15T04:09:24.909Z,99.99
2018-06-15T04:10:24.927Z,99.99
2018-06-15T04:11:24.936Z,99.99
2018-06-15T04:12:24.955Z,99.99
2018-06-15T04:13:25.042Z,99.99
2018-06-15T04:14:24.985Z,99.99
2018-06-15T04:15:25.005Z,99.99
2018-06-15T04:16:25.017Z,99.99
2018-06-15T04:17:25.036Z,99.99
2018-06-15T04:18:25.050Z,99.99
2018-06-15T04:19:25.070Z,99.99
2018-06-15T04:20:25.080Z,99.99
2018-06-15T04:21:25.097Z,99.99
2018-06-15T04:22:25.113Z,99.99
2018-06-15T04:23:25.132Z,99.99
2018-06-15T04:24:25.145Z,99.99
2018-06-15T04:25:25.169Z,99.99
2018-06-15T04:26:25.177Z,99.99
2018-06-15T04:27:25.194Z,99.99
2018-06-15T04:28:25.212Z,99.99
2018-06-15T04:29:25.224Z,99.99
2018-06-15T04:30:25.246Z,99.99
2018-06-15T04:31:25.258Z,99.99
2018-06-15T04:32:25.274Z,99.99
2018-06-15T04:33:25.290Z,99.99
2018-06-15T04:34:25.305Z,99.99
2018-06-15T04:35:25.325Z,99.99
2018-06-15T04:36:25.338Z,99.99
2018-06-15T04:37:25.391Z,99.99
2018-06-15T04:38:25.381Z,99.99
2018-06-15T04:39:25.385Z,99.99
2018-06-15T04:40:25.401Z,99.99
2018-06-15T04:41:25.419Z,99.99
2018-06-15T04:42:25.433Z,99.99
2018-06-15T04:43:25.452Z,99.99
2018-06-15T04:44:25.502Z,99.99
2018-06-15T04:45:25.486Z,99.99
2018-06-15T04:46:25.500Z,99.99
2018-06-15T04:47:25.519Z,99.99
2018-06-15T04:48:25.534Z,99.99
2018-06-15T04:49:25.549Z,99.99
2018-06-15T04:50:25.864Z,99.99
2018-06-15T04:51:25.618Z,99.99
2018-06-15T04:52:25.705Z,99.99
2018-06-15T04:53:25.613Z,99.99
2018-06-15T04:54:26.693Z,99.99
2018-06-15T04:55:25.645Z,99.99
2018-06-15T04:56:25.663Z,99.99
2018-06-15T04:57:25.679Z,99.99
2018-06-15T04:58:25.693Z,99.99
2018-06-15T04:59:25.713Z,99.99
2018-06-15T05:00:25.732Z,99.99
2018-06-15T05:01:25.745Z,99.99
2018-06-15T05:02:25.767Z,99.99
2018-06-15T05:03:25.787Z,99.99
2018-06-15T05:04:26.748Z,99.99
2018-06-15T05:05:25.813Z,99.99
2018-06-15T05:06:25.831Z,99.99
2018-06-15T05:07:25.847Z,99.99
2018-06-15T05:08:25.868Z,99.99
2018-06-15T05:09:25.879Z,99.99
2018-06-15T05:10:25.895Z,99.99
2018-06-15T05:11:26.009Z,99.99
2018-06-15T05:12:25.942Z,99.99
2018-06-15T05:13:25.945Z,99.99
2018-06-15T05:14:25.970Z,99.99
2018-06-15T05:15:25.973Z,99.99
2018-06-15T05:16:25.995Z,99.99
2018-06-15T05:17:26.017Z,99.99
2018-06-15T05:18:26.040Z,99.99
2018-06-15T05:19:26.040Z,99.99
2018-06-15T05:20:26.056Z,99.99
2018-06-15T05:21:26.088Z,99.99
2018-06-15T05:22:26.306Z,99.99
2018-06-15T05:23:26.107Z,99.99
2018-06-15T05:24:26.121Z,99.99
2018-06-15T05:25:26.138Z,99.99
2018-06-15T05:26:26.153Z,99.99
2018-06-15T05:27:26.172Z,99.99
2018-06-15T05:28:26.186Z,99.99
2018-06-15T05:29:26.206Z,99.99
2018-06-15T05:30:26.225Z,99.99
2018-06-15T05:31:26.249Z,99.99
2018-06-15T05:32:26.258Z,99.99
2018-06-15T05:33:26.271Z,99.99
2018-06-15T05:34:26.287Z,99.99
2018-06-15T05:35:26.306Z,99.99
2018-06-15T05:36:26.319Z,99.99
2018-06-15T05:37:26.337Z,99.99
2018-06-15T05:38:26.350Z,99.99
2018-06-15T05:39:26.368Z,99.99
2018-06-15T05:40:26.387Z,99.99
2018-06-15T05:41:26.402Z,99.99
2018-06-15T05:42:26.417Z,99.99
2018-06-15T05:43:26.433Z,99.99
2018-06-15T05:44:26.449Z,99.99
2018-06-15T05:45:26.470Z,99.99
2018-06-15T05:46:26.483Z,99.99
2018-06-15T05:47:26.501Z,99.99
2018-06-15T05:48:26.524Z,99.99
2018-06-15T05:49:26.538Z,99.99
2018-06-15T05:50:26.580Z,99.99
2018-06-15T05:51:26.569Z,99.99
2018-06-15T05:52:26.582Z,99.99
2018-06-15T05:53:26.599Z,99.99
2018-06-15T05:54:26.615Z,99.99
2018-06-15T05:55:26.633Z,99.99
2018-06-15T05:56:26.657Z,99.99
2018-06-15T05:57:26.667Z,99.99
2018-06-15T05:58:26.691Z,99.99
2018-06-15T05:59:26.698Z,99.99
2018-06-15T06:00:26.717Z,99.99
2018-06-15T06:01:26.732Z,99.99
2018-06-15T06:02:26.748Z,99.99
2018-06-15T06:03:26.763Z,99.99
2018-06-15T06:04:26.781Z,99.99
2018-06-15T06:05:26.797Z,99.99
2018-06-15T06:06:26.815Z,99.99
2018-06-15T06:07:26.831Z,99.99
2018-06-15T06:08:26.851Z,99.99
2018-06-15T06:09:26.871Z,99.99
2018-06-15T06:10:26.911Z,99.99
2018-06-15T06:11:26.898Z,99.99
2018-06-15T06:12:26.929Z,99.99
2018-06-15T06:13:26.934Z,99.99
2018-06-15T06:14:26.946Z,99.99
2018-06-15T06:15:26.962Z,99.99
2018-06-15T06:16:26.985Z,99.99
2018-06-15T06:17:26.996Z,99.99
2018-06-15T06:18:27.008Z,99.99
2018-06-15T06:19:27.024Z,99.99
2018-06-15T06:20:27.042Z,99.99
2018-06-15T06:21:27.070Z,99.99
2018-06-15T06:22:27.075Z,99.99
2018-06-15T06:23:27.098Z,99.99
2018-06-15T06:24:27.106Z,99.99
2018-06-15T06:25:27.121Z,99.99
2018-06-15T06:26:27.157Z,99.99
2018-06-15T06:27:27.157Z,99.99
2018-06-15T06:28:27.173Z,99.99
2018-06-15T06:29:27.189Z,99.99
2018-06-15T06:30:27.207Z,99.99
2018-06-15T06:31:27.222Z,99.99
2018-06-15T06:32:27.252Z,99.99
2018-06-15T06:33:27.258Z,99.99
2018-06-15T06:34:27.273Z,99.99
2018-06-15T06:35:27.290Z,99.99
2018-06-15T06:36:27.306Z,99.99
2018-06-15T06:37:27.328Z,99.68
2018-06-15T06:38:27.340Z,99.99
2018-06-15T06:39:27.356Z,98.72
2018-06-15T06:40:27.375Z,99.99
2018-06-15T06:41:27.392Z,99.30
2018-06-15T06:42:27.412Z,98.63
2018-06-15T06:43:27.430Z,97.91
2018-06-15T06:44:27.443Z,98.19
2018-06-15T06:45:27.462Z,95.98
2018-06-15T06:46:27.482Z,96.66
2018-06-15T06:47:27.494Z,96.85
2018-06-15T06:49:27.530Z,97.52
2018-06-15T06:50:27.550Z,96.85
2018-06-15T06:51:27.564Z,95.12
2018-06-15T06:52:27.583Z,93.87
2018-06-15T06:53:27.599Z,93.58
2018-06-15T06:54:27.617Z,94.83
2018-06-15T06:55:27.642Z,94.45
2018-06-15T06:56:27.669Z,94.68
2018-06-15T06:57:27.941Z,96.51
2018-06-15T06:58:27.749Z,95.94
2018-06-15T06:59:27.705Z,95.17
2018-06-15T07:00:27.722Z,94.98
2018-06-15T07:01:27.744Z,94.88
2018-06-15T07:02:27.759Z,94.78
2018-06-15T07:03:27.803Z,93.73
2018-06-15T07:04:27.791Z,93.63
2018-06-15T07:05:27.810Z,92.76
2018-06-15T07:06:27.830Z,93.05
2018-06-15T07:07:27.867Z,92.57
2018-06-15T07:08:27.873Z,92.67
2018-06-15T07:09:27.883Z,93.44
2018-06-15T07:10:27.911Z,93.34
2018-06-15T07:11:27.927Z,93.44
2018-06-15T07:12:28.473Z,92.38
2018-06-15T07:13:27.952Z,91.99
2018-06-15T07:14:27.969Z,91.17
2018-06-15T07:15:27.986Z,90.94
2018-06-15T07:16:28.016Z,89.78
2018-06-15T07:17:28.022Z,90.75
2018-06-15T07:18:28.046Z,91.80
2018-06-15T07:19:28.058Z,90.75
2018-06-15T07:20:28.079Z,91.13
2018-06-15T07:21:28.098Z,91.90
2018-06-15T07:22:28.141Z,91.99
2018-06-15T07:23:28.519Z,94.59
2018-06-15T07:24:28.624Z,94.64
2018-06-15T07:25:28.163Z,93.58
2018-06-15T07:26:28.186Z,93.49
2018-06-15T07:27:28.270Z,94.16
2018-06-15T07:28:28.228Z,94.54
2018-06-15T07:29:28.236Z,94.45
2018-06-15T07:30:28.362Z,93.29
2018-06-15T07:31:28.419Z,93.58
2018-06-15T07:32:28.292Z,93.10
2018-06-15T07:33:28.314Z,93.58
2018-06-15T07:34:28.323Z,95.50
2018-06-15T07:35:28.358Z,93.39
2018-06-15T07:36:28.584Z,92.52
2018-06-15T07:37:28.382Z,94.64
2018-06-15T07:38:28.406Z,94.45
2018-06-15T07:39:28.411Z,93.39
2018-06-15T07:40:28.422Z,93.49
2018-06-15T07:41:28.449Z,92.62
2018-06-15T07:42:28.459Z,94.26
2018-06-15T07:43:28.481Z,93.68
2018-06-15T07:44:28.497Z,93.39
2018-06-15T07:45:28.508Z,94.64
2018-06-15T07:46:28.556Z,94.83
2018-06-15T07:47:28.546Z,94.93
2018-06-15T07:48:28.564Z,95.21
2018-06-15T07:49:28.582Z,95.12
2018-06-15T07:50:28.595Z,94.93
2018-06-15T07:51:28.613Z,93.87
2018-06-15T07:52:28.639Z,94.83
2018-06-15T07:53:28.661Z,94.54
2018-06-15T07:54:28.663Z,94.06
2018-06-15T07:55:28.684Z,93.39
2018-06-15T07:56:28.727Z,93.58
2018-06-15T07:57:28.738Z,93.68
2018-06-15T07:58:28.733Z,93.19
2018-06-15T07:59:28.774Z,93.49
2018-06-15T08:00:28.766Z,93.49
2018-06-15T08:01:28.783Z,93.87
2018-06-15T08:02:28.981Z,92.33
2018-06-15T08:03:28.822Z,92.09
2018-06-15T08:04:29.061Z,90.94
2018-06-15T08:05:29.011Z,90.07
2018-06-15T08:06:28.871Z,89.21
2018-06-15T08:07:28.888Z,90.45
2018-06-15T08:08:28.906Z,89.98
2018-06-15T08:10:28.938Z,89.11
2018-06-15T08:11:28.957Z,88.00
2018-06-15T08:12:29.000Z,88.39
2018-06-15T08:13:28.992Z,87.23
2018-06-15T08:14:29.034Z,88.34
2018-06-15T08:15:29.034Z,86.18
2018-06-15T08:16:29.044Z,86.65
2018-06-15T08:17:29.059Z,87.42
2018-06-15T08:18:29.081Z,87.56
2018-06-15T08:19:29.108Z,85.93
2018-06-15T08:20:29.115Z,84.58
2018-06-15T08:21:29.132Z,84.10
2018-06-15T08:22:29.148Z,85.44
2018-06-15T08:23:29.168Z,84.53
2018-06-15T08:24:29.190Z,84.14
2018-06-15T08:25:29.205Z,83.37
2018-06-15T08:26:29.223Z,82.50
2018-06-15T08:27:29.238Z,82.74
2018-06-15T08:28:29.260Z,82.45
2018-06-15T08:29:29.290Z,82.83
2018-06-15T08:30:29.304Z,80.62
2018-06-15T08:31:29.311Z,80.62
2018-06-15T08:32:29.346Z,81.68
2018-06-15T08:33:29.351Z,82.12
2018-06-15T08:34:29.366Z,82.60
2018-06-15T08:35:29.390Z,81.77
2018-06-15T08:36:29.408Z,81.45
2018-06-15T08:37:29.422Z,81.73
2018-06-15T08:38:29.454Z,82.60
2018-06-15T08:39:29.464Z,82.12
2018-06-15T08:40:29.505Z,82.89
2018-06-15T08:41:29.518Z,80.87
2018-06-15T08:42:29.516Z,82.41
2018-06-15T08:43:29.531Z,81.01
2018-06-15T08:44:29.556Z,82.83
2018-06-15T08:45:29.574Z,81.58
2018-06-15T08:46:29.591Z,80.62
2018-06-15T08:47:29.612Z,81.52
2018-06-15T08:48:29.659Z,77.92
2018-06-15T08:49:29.650Z,79.85
2018-06-15T08:50:29.670Z,79.46
2018-06-15T08:51:29.686Z,80.62
2018-06-15T08:52:29.721Z,80.14
2018-06-15T08:53:29.722Z,79.66
2018-06-15T08:54:29.746Z,79.85
2018-06-15T08:55:29.773Z,81.77
2018-06-15T08:56:29.781Z,79.08
2018-06-15T08:57:29.796Z,80.14
2018-06-15T08:58:29.820Z,80.29
2018-06-15T08:59:29.842Z,81.54
2018-06-15T09:00:29.854Z,81.45
2018-06-15T09:01:29.871Z,82.08
2018-06-15T09:02:29.900Z,81.70
2018-06-15T09:03:29.912Z,81.73
2018-06-15T09:04:29.961Z,81.83
2018-06-15T09:05:29.958Z,81.45
2018-06-15T09:06:29.967Z,80.48
2018-06-15T09:07:29.988Z,80.87
2018-06-15T09:08:30.009Z,79.90
2018-06-15T09:09:30.022Z,79.43
2018-06-15T09:10:30.136Z,79.71
2018-06-15T09:11:30.096Z,79.46
2018-06-15T09:12:30.079Z,79.75
2018-06-15T09:13:30.099Z,78.79
2018-06-15T09:14:30.116Z,78.98
2018-06-15T09:16:30.158Z,78.59
2018-06-15T09:17:30.168Z,78.50
2018-06-15T09:18:30.234Z,77.92
2018-06-15T09:19:30.519Z,75.23
2018-06-15T09:20:30.230Z,75.74
2018-06-15T09:21:30.293Z,77.48
2018-06-15T09:22:30.279Z,78.34
2018-06-15T09:23:30.290Z,76.23
2018-06-15T09:24:30.319Z,75.20
2018-06-15T09:25:30.324Z,75.16
2018-06-15T09:26:30.337Z,75.07
2018-06-15T09:27:30.848Z,75.36
2018-06-15T09:28:30.389Z,77.67
2018-06-15T09:29:30.398Z,77.19
2018-06-15T09:30:30.442Z,77.48
2018-06-15T09:31:30.435Z,79.17
2018-06-15T09:32:30.450Z,78.31
2018-06-15T09:33:30.510Z,77.44
2018-06-15T09:34:30.496Z,77.09
2018-06-15T09:35:30.529Z,77.67
2018-06-15T09:36:30.529Z,76.13
2018-06-15T09:37:30.548Z,75.74
2018-06-15T09:38:30.568Z,75.16
2018-06-15T09:39:30.585Z,75.84
2018-06-15T09:40:30.701Z,75.65
2018-06-15T09:41:31.687Z,75.74
2018-06-15T09:42:30.642Z,77.19
2018-06-15T09:43:30.669Z,77.58
2018-06-15T09:44:31.262Z,76.42
2018-06-15T09:47:30.766Z,73.95
2018-06-15T09:48:30.777Z,70.38
2018-06-15T09:49:30.802Z,70.00
2018-06-15T09:50:30.798Z,71.12
2018-06-15T09:51:30.821Z,71.89
2018-06-15T09:52:30.838Z,72.60
2018-06-15T09:53:30.856Z,72.12
2018-06-15T09:54:30.943Z,71.73
2018-06-15T09:55:30.915Z,73.95
2018-06-15T09:56:30.919Z,74.91
2018-06-15T09:58:30.942Z,74.10
2018-06-15T09:59:30.979Z,74.97
2018-06-15T10:00:30.983Z,75.26
2018-06-15T10:01:31.000Z,75.65
2018-06-15T10:02:31.021Z,73.72
2018-06-15T10:03:31.038Z,73.14
2018-06-15T10:04:31.058Z,72.85
2018-06-15T10:05:31.082Z,74.01
2018-06-15T10:06:31.122Z,75.74
2018-06-15T10:07:31.134Z,74.10
2018-06-15T10:08:31.139Z,74.20
2018-06-15T10:09:31.177Z,74.68
2018-06-15T10:10:31.198Z,73.43
2018-06-15T10:11:31.190Z,73.53
2018-06-15T10:12:31.243Z,74.01
2018-06-15T10:13:31.387Z,74.88
2018-06-15T10:14:31.269Z,74.01
2018-06-15T10:15:31.266Z,74.01
2018-06-15T10:16:31.288Z,74.26
2018-06-15T10:17:31.319Z,74.36
2018-06-15T10:18:31.330Z,74.97
2018-06-15T10:19:31.353Z,74.01
2018-06-15T10:20:31.375Z,74.30
2018-06-15T10:21:32.363Z,75.07
2018-06-15T10:22:31.395Z,73.62
2018-06-15T10:23:31.418Z,74.01
2018-06-15T10:24:31.437Z,74.10
2018-06-15T10:25:31.455Z,72.95
2018-06-15T10:26:31.471Z,73.08
2018-06-15T10:27:31.493Z,72.75
2018-06-15T10:28:31.513Z,72.56
2018-06-15T10:29:31.533Z,72.99
2018-06-15T10:30:31.550Z,72.02
2018-06-15T10:31:31.564Z,70.38
2018-06-15T10:32:31.597Z,69.55
2018-06-15T10:33:31.634Z,69.35
2018-06-15T10:34:31.624Z,70.51
2018-06-15T10:35:31.647Z,70.61
2018-06-15T10:36:31.713Z,69.26
2018-06-15T10:37:31.682Z,69.35
2018-06-15T10:38:31.698Z,69.35
2018-06-15T10:39:31.771Z,69.20
2018-06-15T10:40:32.229Z,67.55
2018-06-15T10:41:32.484Z,68.33
2018-06-15T10:42:31.778Z,69.10
2018-06-15T10:43:31.791Z,68.71
2018-06-15T10:44:31.829Z,69.20
2018-06-15T10:45:31.859Z,68.52
2018-06-15T10:46:31.848Z,67.65
2018-06-15T10:47:31.889Z,68.91
2018-06-15T10:48:31.966Z,69.29
2018-06-15T10:49:31.916Z,67.65
2018-06-15T10:50:31.922Z,68.62
2018-06-15T10:51:31.944Z,67.46
2018-06-15T10:52:32.008Z,67.69
2018-06-15T10:53:31.976Z,67.49
2018-06-15T10:54:32.001Z,65.56
2018-06-15T10:55:32.019Z,67.36
2018-06-15T10:56:32.149Z,66.11
2018-06-15T10:57:32.055Z,66.91
2018-06-15T10:58:32.072Z,62.66
2018-06-15T10:59:32.096Z,62.95
2018-06-15T11:00:32.118Z,64.98
2018-06-15T11:01:32.131Z,65.08
2018-06-15T11:02:32.155Z,65.11
2018-06-15T11:03:32.174Z,64.92
2018-06-15T11:04:32.197Z,62.57
2018-06-15T11:05:32.210Z,61.73
2018-06-15T11:06:32.226Z,62.50
2018-06-15T11:07:32.386Z,61.54
2018-06-15T11:08:32.894Z,61.92
2018-06-15T11:09:32.305Z,62.12
2018-06-15T11:10:32.308Z,59.41
2018-06-15T11:11:32.336Z,60.47
2018-06-15T11:12:32.349Z,62.50
2018-06-15T11:13:32.371Z,60.47
2018-06-15T11:14:32.385Z,60.76
2018-06-15T11:15:32.406Z,61.05
2018-06-15T11:16:32.426Z,61.34
2018-06-15T11:17:32.952Z,61.47
2018-06-15T11:18:32.488Z,60.96
2018-06-15T11:19:32.510Z,61.25
2018-06-15T11:20:32.503Z,63.76
2018-06-15T11:21:32.572Z,64.24
2018-06-15T11:22:32.540Z,63.95
2018-06-15T11:23:32.561Z,63.18
2018-06-15T11:25:33.070Z,65.78
2018-06-15T11:26:32.617Z,61.47
2018-06-15T11:27:32.647Z,60.60
2018-06-15T11:28:32.662Z,61.24
2018-06-15T11:29:32.680Z,60.72
2018-06-15T11:30:32.764Z,60.05
2018-06-15T11:31:32.721Z,60.05
2018-06-15T11:32:32.742Z,58.60
2018-06-15T11:33:32.858Z,58.67
2018-06-15T11:34:32.780Z,60.69
2018-06-15T11:35:32.799Z,61.66
2018-06-15T11:36:32.835Z,61.79
2018-06-15T11:37:32.843Z,60.05
2018-06-15T11:38:32.868Z,59.56
2018-06-15T11:39:32.877Z,62.30
2018-06-15T11:40:32.902Z,59.89
2018-06-15T11:41:32.919Z,59.31
2018-06-15T11:42:32.942Z,60.57
2018-06-15T11:43:33.062Z,61.82
2018-06-15T11:44:32.982Z,60.08
2018-06-15T11:45:33.002Z,61.24
2018-06-15T11:46:33.034Z,61.08
2018-06-15T11:47:33.043Z,60.37
2018-06-15T11:48:33.064Z,59.31
2018-06-15T11:49:33.082Z,62.59
2018-06-15T11:50:33.627Z,60.95
2018-06-15T11:51:33.128Z,60.66
2018-06-15T11:52:33.142Z,61.63
2018-06-15T11:53:33.173Z,61.24
2018-06-15T11:54:33.291Z,59.38
2018-06-15T11:55:33.212Z,59.73
2018-06-15T11:56:33.229Z,59.08
2018-06-15T11:57:33.321Z,57.46
2018-06-15T11:58:33.269Z,59.01
2018-06-15T11:59:33.358Z,59.33
2018-06-15T12:00:33.306Z,62.04
2018-06-15T12:01:33.328Z,57.71
2018-06-15T12:02:33.348Z,58.88
2018-06-15T12:03:33.421Z,57.43
2018-06-15T12:04:33.391Z,57.94
2018-06-15T12:05:33.412Z,59.49
2018-06-15T12:06:33.509Z,55.13
2018-06-15T12:07:33.474Z,52.32
2018-06-15T12:08:33.483Z,51.74
2018-06-15T12:09:33.541Z,50.89
2018-06-15T12:10:33.527Z,50.89
2018-06-15T12:11:33.562Z,49.24
2018-06-15T12:12:33.556Z,51.67
2018-06-15T12:13:33.589Z,49.73
2018-06-15T12:14:33.596Z,49.54
2018-06-15T12:15:33.621Z,49.73
2018-06-15T12:16:33.639Z,51.54
2018-06-15T12:17:33.660Z,52.90
2018-06-15T12:18:33.683Z,51.04
2018-06-15T12:19:33.705Z,51.68
2018-06-15T12:20:33.750Z,54.08
2018-06-15T12:21:33.747Z,56.62
2018-06-15T12:22:33.787Z,54.30
2018-06-15T12:23:33.970Z,55.36
2018-06-15T12:24:34.369Z,54.23
2018-06-15T12:25:33.865Z,53.75
2018-06-15T12:26:33.854Z,52.51
2018-06-15T12:27:33.871Z,52.32
2018-06-15T12:28:34.050Z,50.89
2018-06-15T12:29:33.914Z,50.34
2018-06-15T12:30:34.007Z,51.59
2018-06-15T12:31:34.797Z,49.07
2018-06-15T12:32:35.124Z,48.95
2018-06-15T12:33:35.286Z,48.85
2018-06-15T12:34:34.021Z,50.67
2018-06-15T12:35:34.042Z,50.65
2018-06-15T12:36:34.064Z,52.17
2018-06-15T12:37:34.089Z,54.59
2018-06-15T12:38:34.105Z,55.27
2018-06-15T12:39:34.129Z,53.43
2018-06-15T12:40:34.260Z,51.52
2018-06-15T12:41:34.171Z,50.84
2018-06-15T12:42:34.194Z,50.26
2018-06-15T12:43:34.215Z,53.00
2018-06-15T12:44:34.235Z,54.64
2018-06-15T12:45:34.257Z,53.12
2018-06-15T12:46:34.291Z,52.93
2018-06-15T12:47:34.307Z,50.24
2018-06-15T12:48:34.330Z,50.16
2018-06-15T12:49:34.346Z,51.23
2018-06-15T12:50:34.368Z,48.73
2018-06-15T12:51:34.391Z,48.52
2018-06-15T12:52:34.422Z,48.88
2018-06-15T12:53:34.439Z,48.88
2018-06-15T12:54:34.464Z,49.73
2018-06-15T12:55:34.490Z,48.95
2018-06-15T12:56:34.514Z,52.15
2018-06-15T12:57:34.540Z,54.48
2018-06-15T12:58:34.561Z,54.28
2018-06-15T12:59:34.577Z,51.57